Hovedside
METAR-TAF:

METAR-TAF

Lufthavner :

Sveg, Sverige

Sveg lufthavn

breddegrad: 62-02-52N, lengdegrad: 014-25-22E, høyde over havet: 359 m

Gjeldene værobservasjon

Denne rapporten ble laget for 26 minutter siden, klokken 04:20 UTC
Vind 8 kt fra Nordøst, skiftende mellom Nord og Øst-nordøst
Temperatur -1°C
Luftfuktighet 74%
Trykk 998 hPa
Sikt 10 km eller mer
Få skyer i en høyde av 300 ft
Brutte skyer i en høyde av 2200 ft
Brutte skyer i en høyde av 3600 ft
lett snø

METAR: ESND 250420Z 04008KT 010V070 9999 -SN FEW003 BKN022 BKN036 M01/M05 Q0998

Tid: 06:46 (04:46 UTC)


TAF: fraværende

Værobservasjoner og værvarsel for over 4000 flyplasser (METAR- og TAF-rapporter).

Tilgjengelige stasjoner er representert av de røde og gule prikkene på kartet.

Hold musepekeren over prikken for å se navnet på stasjonen.

Klikk så for å se værobservasjoner og -varsler.

For å forandre kartet kan du klikke på den grønne knappen med svart kryss for å zoome inn, på den grønne knappen med strek for å zoome ut, eller på de grønne pilene for å se tilstøtende kart.


METAR-TAF: